Time;durP1;ratioP1;P1;durP2;ratioP2;P2;SDS_P1;SDS_P2;PMS_P1;PMS_P2;Temp;Humidity;BMP_temperature;BMP_pressure;BME280_temperature;BME280_humidity;BME280_pressure;Samples;Min_cycle;Max_cycle;Signal;HPM_P1;HPM_P2
2021/12/10 00:00:42;;;;;;;;;;;;;;;4.44;100.00;99706.97;2612497;36;20038;-73
2021/12/10 00:03:15;;;;;;;39.60;21.00;;;;;;;4.40;100.00;99694.84;2612212;36;20479;-73
2021/12/10 00:05:49;;;;;;;37.83;20.02;;;;;;;4.38;100.00;99696.81;2611544;36;20057;-73
2021/12/10 00:08:23;;;;;;;37.50;17.48;;;;;;;4.35;100.00;99687.25;2631959;36;20243;-73
2021/12/10 00:10:59;;;;;;;40.85;18.55;;;;;;;4.32;100.00;99681.34;2611843;36;20034;-73
2021/12/10 00:13:28;;;;;;;35.88;16.50;;;;;;;4.30;100.00;99683.25;2612406;36;20035;-73
2021/12/10 00:15:57;;;;;;;32.83;16.95;;;;;;;4.30;100.00;99673.47;2611261;36;20043;-74
2021/12/10 00:18:33;;;;;;;38.65;17.83;;;;;;;4.20;100.00;99673.34;2628224;36;20054;-75
2021/12/10 00:21:03;;;;;;;35.95;17.85;;;;;;;4.07;100.00;99666.50;2610738;36;20035;-73
2021/12/10 00:23:49;;;;;;;27.92;15.48;;;;;;;4.13;100.00;99666.84;2611048;36;20065;-73
2021/12/10 00:26:20;;;;;;;29.00;14.77;;;;;;;4.05;100.00;99669.28;2611807;36;20031;-73
2021/12/10 00:28:50;;;;;;;33.95;16.67;;;;;;;4.04;100.00;99662.25;2612083;36;20130;-74
2021/12/10 00:31:31;;;;;;;29.63;16.58;;;;;;;4.01;100.00;99651.84;2611635;31;20815;-73
2021/12/10 00:34:07;;;;;;;31.00;14.63;;;;;;;3.94;100.00;99658.66;2611244;36;20559;-72
2021/12/10 00:36:48;;;;;;;30.70;14.98;;;;;;;3.91;100.00;99648.25;2614474;36;20038;-72
2021/12/10 00:39:19;;;;;;;32.03;15.35;;;;;;;3.83;100.00;99639.06;2612027;36;20141;-72
2021/12/10 00:41:59;;;;;;;33.30;15.32;;;;;;;3.82;100.00;99639.19;2612517;36;20042;-72
2021/12/10 00:44:27;;;;;;;;;;;;;;;3.75;100.00;99636.16;2611915;36;20061;-72
2021/12/10 00:46:58;;;;;;;22.33;13.95;;;;;;;3.67;100.00;99623.47;2612131;36;20037;-72
2021/12/10 00:49:34;;;;;;;23.58;14.00;;;;;;;3.63;100.00;99611.38;2611894;36;20034;-73
2021/12/10 00:52:14;;;;;;;32.33;14.18;;;;;;;3.62;100.00;99608.81;2612242;36;20030;-72
2021/12/10 00:54:44;;;;;;;24.83;13.18;;;;;;;3.50;100.00;99606.19;2612058;36;20068;-73
2021/12/10 00:57:18;;;;;;;33.97;15.57;;;;;;;3.47;100.00;99608.25;2612405;36;20133;-72
2021/12/10 00:59:52;;;;;;;27.13;14.15;;;;;;;3.43;100.00;99591.69;2611478;31;20506;-72
2021/12/10 01:02:27;;;;;;;25.77;14.02;;;;;;;3.39;100.00;99592.91;2611217;36;20057;-72
2021/12/10 01:05:01;;;;;;;28.27;16.35;;;;;;;3.36;100.00;99593.13;2610970;36;20053;-72
2021/12/10 01:07:38;;;;;;;27.52;14.63;;;;;;;3.43;100.00;99586.38;2612001;36;20039;-72
2021/12/10 01:10:24;;;;;;;28.10;16.85;;;;;;;3.46;100.00;99588.78;2610329;36;20038;-71
2021/12/10 01:13:02;;;;;;;31.88;17.45;;;;;;;3.45;100.00;99575.59;2629622;36;20041;-72
2021/12/10 01:15:52;;;;;;;34.95;16.33;;;;;;;3.47;100.00;99568.34;2612063;31;20031;-71
2021/12/10 01:24:07;;;;;;;34.60;16.58;;;;;;;3.45;100.00;99560.47;2610587;36;20963;-74
2021/12/10 01:27:00;;;;;;;31.90;16.60;;;;;;;3.41;100.00;99558.19;2612368;31;20031;-71
2021/12/10 01:32:02;;;;;;;34.75;17.15;;;;;;;3.40;100.00;99552.03;2611914;36;20034;-72
2021/12/10 01:34:40;;;;;;;36.08;18.02;;;;;;;3.33;100.00;99550.84;2611884;36;20038;-72
2021/12/10 01:37:09;;;;;;;40.13;20.88;;;;;;;3.36;100.00;99542.59;2611905;36;20137;-72
2021/12/10 01:39:46;;;;;;;39.83;20.17;;;;;;;3.28;100.00;99542.34;2629847;36;20042;-73
2021/12/10 01:42:37;;;;;;;35.55;21.30;;;;;;;3.31;100.00;99550.09;2611478;36;20042;-72
2021/12/10 01:45:17;;;;;;;37.28;20.92;;;;;;;3.34;100.00;99539.19;2611925;36;20141;-72
2021/12/10 01:47:52;;;;;;;32.72;19.10;;;;;;;3.32;100.00;99534.00;2612100;36;20043;-72
2021/12/10 01:50:20;;;;;;;38.83;21.42;;;;;;;3.28;100.00;99537.03;2628693;36;20513;-72
2021/12/10 01:52:54;;;;;;;42.33;20.70;;;;;;;3.28;100.00;99537.03;2612208;36;20514;-72
2021/12/10 01:55:28;;;;;;;44.60;22.52;;;;;;;3.25;100.00;99524.00;2612098;36;20201;-71
2021/12/10 01:58:00;;;;;;;36.50;21.17;;;;;;;3.27;100.00;99530.06;2612442;31;20502;-72
2021/12/10 02:00:38;;;;;;;41.63;21.70;;;;;;;3.26;100.00;99523.03;2630220;36;20142;-72
2021/12/10 02:03:09;;;;;;;36.17;21.13;;;;;;;3.27;100.00;99517.59;2612387;31;20034;-72
2021/12/10 02:05:38;;;;;;;36.58;19.88;;;;;;;3.22;100.00;99516.25;2611865;36;20031;-73
2021/12/10 02:08:10;;;;;;;37.55;21.27;;;;;;;3.19;100.00;99524.47;2629619;31;20122;-73
2021/12/10 02:10:41;;;;;;;31.63;18.42;;;;;;;3.21;100.00;99525.19;2612094;36;20427;-73
2021/12/10 02:13:10;;;;;;;32.38;19.60;;;;;;;3.11;100.00;99523.28;2611347;36;20034;-73
2021/12/10 02:15:38;;;;;;;35.70;18.90;;;;;;;3.18;100.00;99514.81;2612096;36;20076;-72
2021/12/10 02:18:12;;;;;;;39.88;22.20;;;;;;;3.19;100.00;99519.16;2610707;36;20037;-72
2021/12/10 02:20:52;;;;;;;40.80;21.40;;;;;;;3.10;100.00;99510.94;2628634;36;20068;-72
2021/12/10 02:23:22;;;;;;;33.60;18.77;;;;;;;3.11;100.00;99506.50;2611334;36;20046;-72
2021/12/10 02:25:50;;;;;;;;;;;;;;;3.03;100.00;99496.44;2629376;36;20054;-72
2021/12/10 02:28:20;;;;;;;31.70;17.88;;;;;;;2.93;100.00;99488.38;2611667;36;19958;-73
2021/12/10 02:30:54;;;;;;;31.30;19.02;;;;;;;2.85;100.00;99477.47;2611998;31;20208;-73
2021/12/10 02:33:22;;;;;;;28.30;17.70;;;;;;;2.83;100.00;99483.88;2611665;36;20055;-72
2021/12/10 02:35:56;;;;;;;32.97;18.42;;;;;;;2.81;100.00;99465.41;2611732;36;20638;-73
2021/12/10 02:38:25;;;;;;;30.48;17.45;;;;;;;2.73;100.00;99458.03;2611545;36;20757;-72
2021/12/10 02:40:58;;;;;;;32.05;17.65;;;;;;;2.70;100.00;99454.78;2612322;36;20065;-73
2021/12/10 02:43:26;;;;;;;34.55;17.77;;;;;;;2.65;100.00;99451.63;2612363;31;20605;-73
2021/12/10 02:46:02;;;;;;;28.50;16.85;;;;;;;2.65;100.00;99443.66;2629677;36;20038;-72
2021/12/10 02:48:34;;;;;;;28.35;17.77;;;;;;;2.53;100.00;99440.16;2612475;36;20568;-73
2021/12/10 02:51:15;;;;;;;29.00;16.38;;;;;;;2.49;100.00;99433.38;2611200;36;20034;-73
2021/12/10 02:53:45;;;;;;;28.33;14.93;;;;;;;2.50;100.00;99430.63;2611144;36;20030;-73
2021/12/10 02:56:15;;;;;;;26.58;15.70;;;;;;;2.44;100.00;99437.28;2611958;36;20054;-74
2021/12/10 03:03:44;;;;;;;24.55;14.00;;;;;;;2.42;100.00;99423.25;2610986;36;20034;-72
2021/12/10 03:06:16;;;;;;;26.80;13.35;;;;;;;2.39;100.00;99420.84;2611338;36;20065;-72
2021/12/10 03:09:02;;;;;;;25.40;13.55;;;;;;;2.34;100.00;99419.50;2610735;36;20579;-72
2021/12/10 03:11:33;;;;;;;23.40;12.88;;;;;;;2.38;100.00;99415.66;2611591;36;20511;-72
2021/12/10 03:14:08;;;;;;;22.23;12.75;;;;;;;2.33;100.00;99400.06;2611923;36;20034;-72
2021/12/10 03:16:36;;;;;;;24.67;13.45;;;;;;;2.30;100.00;99394.16;2611035;31;20038;-72
2021/12/10 03:19:05;;;;;;;27.60;11.70;;;;;;;2.33;100.00;99392.13;2611259;36;20133;-72
2021/12/10 03:21:42;;;;;;;22.85;12.13;;;;;;;2.32;100.00;99386.91;2610825;36;21256;-72
2021/12/10 03:24:10;;;;;;;22.95;11.18;;;;;;;2.29;100.00;99382.69;2611106;36;20034;-72
2021/12/10 03:26:39;;;;;;;16.83;10.65;;;;;;;2.23;100.00;99369.91;2611374;36;20125;-72
2021/12/10 03:29:08;;;;;;;19.75;11.27;;;;;;;2.26;100.00;99370.50;2611490;36;20118;-72
2021/12/10 03:31:37;;;;;;;20.27;10.57;;;;;;;2.27;100.00;99366.88;2611248;36;20535;-72
2021/12/10 03:36:52;;;;;;;16.00;10.20;;;;;;;2.21;100.00;99361.19;2610790;36;20041;-72
2021/12/10 03:39:23;;;;;;;18.17;10.73;;;;;;;2.18;100.00;99361.44;2611042;36;20206;-72
2021/12/10 03:41:52;;;;;;;19.02;9.52;;;;;;;2.15;100.00;99348.41;2611364;36;20117;-72
2021/12/10 03:44:20;;;;;;;17.80;10.10;;;;;;;2.16;100.00;99342.97;2611690;36;20130;-72
2021/12/10 03:46:49;;;;;;;18.60;10.35;;;;;;;2.07;100.00;99341.88;2611151;36;20062;-72
2021/12/10 03:49:20;;;;;;;19.50;11.07;;;;;;;2.12;100.00;99340.69;2611822;36;20122;-72
2021/12/10 03:51:58;;;;;;;19.70;9.40;;;;;;;2.11;100.00;99339.84;2610852;36;20059;-72
2021/12/10 03:54:30;;;;;;;17.75;9.30;;;;;;;2.06;100.00;99324.28;2611594;36;20052;-72
2021/12/10 03:56:58;;;;;;;19.45;9.07;;;;;;;2.07;100.00;99322.47;2611274;36;20042;-72
2021/12/10 03:59:30;;;;;;;21.23;9.67;;;;;;;2.06;100.00;99318.97;2611495;36;20031;-73
2021/12/10 04:02:00;;;;;;;21.98;9.73;;;;;;;2.01;100.00;99312.34;2611399;36;20562;-72
2021/12/10 04:04:29;;;;;;;;;;;;;;;2.00;100.00;99311.47;2612414;31;20625;-73
2021/12/10 04:07:07;;;;;;;21.42;9.02;;;;;;;2.02;100.00;99309.56;2611691;31;20448;-73
2021/12/10 04:09:35;;;;;;;16.80;9.35;;;;;;;2.03;100.00;99315.72;2611269;36;20046;-73
2021/12/10 04:12:07;;;;;;;17.03;9.57;;;;;;;1.99;100.00;99307.16;2610800;36;20045;-73
2021/12/10 04:14:36;;;;;;;17.33;9.20;;;;;;;1.98;100.00;99307.28;2611679;36;20393;-72
2021/12/10 04:17:05;;;;;;;18.48;8.80;;;;;;;1.98;100.00;99309.94;2611369;36;20037;-73
2021/12/10 04:19:38;;;;;;;16.08;8.23;;;;;;;1.98;100.00;99305.44;2612395;31;20073;-73
2021/12/10 04:22:12;;;;;;;18.02;7.47;;;;;;;2.02;100.00;99293.63;2610792;36;20038;-73
2021/12/10 04:24:43;;;;;;;15.82;7.65;;;;;;;2.01;100.00;99297.25;2612420;31;20579;-73
2021/12/10 04:27:14;;;;;;;13.48;7.65;;;;;;;2.01;100.00;99283.97;2611782;36;20576;-73
2021/12/10 04:29:43;;;;;;;15.25;7.72;;;;;;;2.02;100.00;99272.41;2612591;31;20077;-73
2021/12/10 04:32:16;;;;;;;12.60;7.28;;;;;;;2.04;100.00;99267.81;2611709;36;20045;-72
2021/12/10 04:34:44;;;;;;;12.20;6.18;;;;;;;2.06;100.00;99270.34;2612235;36;20118;-73
2021/12/10 04:37:15;;;;;;;17.23;7.15;;;;;;;2.08;100.00;99253.34;2611942;36;20426;-73
2021/12/10 04:39:48;;;;;;;13.00;6.15;;;;;;;2.14;100.00;99245.88;2612352;36;20162;-72
2021/12/10 04:42:22;;;;;;;11.98;5.47;;;;;;;2.07;100.00;99243.69;2611647;36;20061;-73
2021/12/10 04:47:25;;;;;;;14.35;5.65;;;;;;;2.13;100.00;99231.75;2611791;36;20034;-73
2021/12/10 04:49:54;;;;;;;12.90;5.50;;;;;;;2.21;100.00;99234.66;2612719;36;20459;-73
2021/12/10 04:52:26;;;;;;;13.00;5.73;;;;;;;2.25;100.00;99232.56;2611728;36;20410;-73
2021/12/10 04:54:55;;;;;;;13.15;5.47;;;;;;;2.24;100.00;99221.13;2612407;36;20141;-73
2021/12/10 04:57:23;;;;;;;12.75;5.82;;;;;;;2.29;100.00;99226.06;2611622;31;20611;-73
2021/12/10 04:59:51;;;;;;;10.68;5.38;;;;;;;2.34;100.00;99212.41;2612435;36;20065;-73
2021/12/10 05:02:29;;;;;;;11.82;5.32;;;;;;;2.36;100.00;99215.81;2611318;31;20096;-73
2021/12/10 05:04:58;;;;;;;13.00;5.88;;;;;;;2.39;100.00;99207.59;2611104;36;20035;-73
2021/12/10 05:07:33;;;;;;;10.70;5.38;;;;;;;2.38;100.00;99211.19;2611648;36;20034;-73
2021/12/10 05:12:34;;;;;;;11.02;5.40;;;;;;;2.36;100.00;99206.00;2612163;36;20039;-73
2021/12/10 05:15:02;;;;;;;10.73;5.03;;;;;;;2.32;100.00;99204.56;2611707;36;20042;-73
2021/12/10 05:17:34;;;;;;;11.05;5.43;;;;;;;2.35;100.00;99206.97;2612207;36;20060;-73
2021/12/10 05:20:03;;;;;;;8.98;4.75;;;;;;;2.36;100.00;99198.03;2611705;36;20034;-73
2021/12/10 05:22:34;;;;;;;10.50;5.22;;;;;;;2.31;100.00;99196.72;2629529;36;20118;-72
2021/12/10 05:25:04;;;;;;;11.40;5.35;;;;;;;2.31;100.00;99194.06;2611876;36;20542;-72
2021/12/10 05:27:33;;;;;;;13.38;4.65;;;;;;;2.37;100.00;99183.81;2611965;36;20150;-73
2021/12/10 05:30:01;;;;;;;9.40;4.72;;;;;;;2.37;100.00;99196.22;2612065;31;20078;-73
2021/12/10 05:32:30;;;;;;;10.63;4.65;;;;;;;2.30;100.00;99190.59;2610920;36;20042;-73
2021/12/10 05:34:59;;;;;;;10.23;4.70;;;;;;;2.30;100.00;99185.28;2610815;36;21177;-73
2021/12/10 05:37:28;;;;;;;11.63;5.28;;;;;;;2.25;100.00;99179.47;2611939;36;20038;-73
2021/12/10 05:39:58;;;;;;;17.90;5.30;;;;;;;2.11;100.00;99177.97;2612912;36;20074;-73
2021/12/10 05:42:30;;;;;;;9.75;5.13;;;;;;;2.10;100.00;99170.94;2611631;36;20166;-73
2021/12/10 05:44:59;;;;;;;14.32;5.28;;;;;;;2.05;100.00;99179.28;2612350;36;20431;-73
2021/12/10 05:47:27;;;;;;;11.23;5.03;;;;;;;2.03;100.00;99178.56;2611174;36;20077;-73
2021/12/10 05:49:55;;;;;;;11.73;5.22;;;;;;;2.02;100.00;99176.06;2611520;36;20141;-73
2021/12/10 05:52:24;;;;;;;7.78;4.70;;;;;;;2.01;100.00;99175.19;2611610;36;20168;-73
2021/12/10 05:54:53;;;;;;;13.02;5.93;;;;;;;1.99;100.00;99169.16;2611168;36;20073;-73
2021/12/10 06:00:01;;;;;;;12.20;6.10;;;;;;;1.91;100.00;99163.63;2611492;54;20049;-73
2021/12/10 06:02:30;;;;;;;12.60;6.35;;;;;;;1.91;100.00;99158.31;2611755;36;20046;-73
2021/12/10 06:05:02;;;;;;;15.50;7.33;;;;;;;1.91;100.00;99145.91;2608706;31;20061;-73
2021/12/10 06:07:31;;;;;;;18.23;6.78;;;;;;;1.96;100.00;99153.50;2608433;36;20636;-73
2021/12/10 06:09:59;;;;;;;21.27;7.47;;;;;;;1.95;100.00;99159.75;2612386;36;20439;-73
2021/12/10 06:12:30;;;;;;;13.98;6.63;;;;;;;1.97;100.00;99155.16;2610013;36;20081;-73
2021/12/10 06:15:05;;;;;;;12.65;6.95;;;;;;;2.02;100.00;99152.16;2608832;36;20030;-73
2021/12/10 06:17:33;;;;;;;11.77;6.68;;;;;;;2.06;100.00;99146.47;2609218;36;20173;-73
2021/12/10 06:20:01;;;;;;;15.85;6.47;;;;;;;2.12;100.00;99145.16;2609346;31;20053;-73
2021/12/10 06:22:30;;;;;;;13.02;6.80;;;;;;;2.13;100.00;99138.03;2609805;36;20084;-73
2021/12/10 06:24:58;;;;;;;18.13;6.60;;;;;;;2.15;100.00;99139.59;2610250;36;20622;-73
2021/12/10 06:27:27;;;;;;;13.65;7.15;;;;;;;2.19;100.00;99138.34;2610329;36;20158;-73
2021/12/10 06:29:57;;;;;;;17.30;6.95;;;;;;;2.17;100.00;99134.16;2609289;36;20038;-73
2021/12/10 06:32:28;;;;;;;12.55;6.72;;;;;;;2.20;100.00;99140.03;2608121;36;20038;-73
2021/12/10 06:34:56;;;;;;;13.88;6.80;;;;;;;2.20;100.00;99137.38;2608767;36;20038;-73
2021/12/10 06:37:25;;;;;;;16.10;5.50;;;;;;;2.20;100.00;99136.56;2610768;36;20165;-73
2021/12/10 06:39:59;;;;;;;19.17;7.75;;;;;;;2.25;100.00;99129.91;2609260;36;20696;-73
2021/12/10 06:45:45;;;;;;;15.00;7.63;;;;;;;2.26;100.00;99142.19;2609249;36;20654;-73
2021/12/10 06:48:18;;;;;;;15.13;7.53;;;;;;;2.24;100.00;99140.66;2609687;31;20126;-73
2021/12/10 06:50:51;;;;;;;18.58;8.82;;;;;;;2.22;100.00;99140.78;2610211;36;20511;-73
2021/12/10 06:53:21;;;;;;;13.55;6.88;;;;;;;2.27;100.00;99153.66;2608129;31;20118;-72
2021/12/10 06:56:00;;;;;;;18.27;7.50;;;;;;;2.22;100.00;99139.91;2610517;36;20080;-72
2021/12/10 06:58:33;;;;;;;11.30;6.97;;;;;;;2.23;100.00;99152.22;2611176;36;20050;-73
2021/12/10 07:01:21;;;;;;;14.63;6.93;;;;;;;2.22;100.00;99150.53;2610733;36;20122;-73
2021/12/10 07:03:57;;;;;;;13.43;7.22;;;;;;;2.17;100.00;99153.56;2611243;31;20038;-72
2021/12/10 07:06:27;;;;;;;15.02;7.05;;;;;;;2.13;100.00;99156.59;2611218;36;20121;-73
2021/12/10 07:08:57;;;;;;;12.55;6.60;;;;;;;2.12;100.00;99154.91;2610661;36;20045;-73
2021/12/10 07:11:27;;;;;;;12.95;6.63;;;;;;;2.10;100.00;99163.81;2611425;36;20042;-73
2021/12/10 07:13:59;;;;;;;11.38;6.20;;;;;;;2.07;100.00;99164.06;2611518;36;20057;-74
2021/12/10 07:16:29;;;;;;;18.70;6.75;;;;;;;2.08;100.00;99155.16;2611590;36;20085;-73
2021/12/10 07:19:02;;;;;;;13.32;7.20;;;;;;;2.12;100.00;99160.22;2610339;36;20078;-73
2021/12/10 07:21:31;;;;;;;14.68;7.03;;;;;;;2.16;100.00;99165.16;2610344;36;20030;-74
2021/12/10 07:24:03;;;;;;;13.00;6.57;;;;;;;2.15;100.00;99159.97;2610734;36;20038;-73
2021/12/10 07:26:36;;;;;;;11.93;5.60;;;;;;;2.23;100.00;99153.06;2629192;36;20034;-73
2021/12/10 07:29:09;;;;;;;12.02;6.30;;;;;;;2.23;100.00;99163.69;2609972;36;20049;-73
2021/12/10 07:31:39;;;;;;;10.43;5.78;;;;;;;2.17;100.00;99155.38;2611544;36;20054;-72
2021/12/10 07:34:13;;;;;;;13.00;5.97;;;;;;;2.18;100.00;99154.41;2611380;36;20031;-72
2021/12/10 07:36:42;;;;;;;11.35;5.90;;;;;;;2.14;100.00;99160.94;2611244;36;20166;-72
2021/12/10 07:39:14;;;;;;;12.00;4.97;;;;;;;2.18;100.00;99154.41;2611466;36;20050;-73
2021/12/10 07:41:43;;;;;;;15.00;5.60;;;;;;;2.13;100.00;99160.09;2611619;36;20567;-73
2021/12/10 07:44:13;;;;;;;10.32;5.20;;;;;;;2.09;100.00;99167.47;2610715;31;20030;-72
2021/12/10 07:46:43;;;;;;;13.13;5.65;;;;;;;2.04;100.00;99166.97;2629658;36;20030;-72
2021/12/10 07:49:17;;;;;;;11.93;5.50;;;;;;;2.04;100.00;99166.97;2610681;36;20061;-72
2021/12/10 07:51:49;;;;;;;9.52;5.43;;;;;;;2.01;100.00;99175.19;2611484;36;20088;-73
2021/12/10 07:54:18;;;;;;;14.50;5.35;;;;;;;2.04;100.00;99180.25;2612283;31;20048;-72
2021/12/10 07:56:46;;;;;;;12.73;5.27;;;;;;;2.06;100.00;99177.47;2612380;36;20069;-72
2021/12/10 08:01:59;;;;;;;13.25;5.30;;;;;;;2.02;100.00;99179.53;2612015;36;21103;-72
2021/12/10 08:04:30;;;;;;;12.77;5.43;;;;;;;2.06;100.00;99178.31;2611285;36;20137;-72
2021/12/10 08:07:01;;;;;;;16.33;5.60;;;;;;;2.09;100.00;99166.59;2612310;36;21000;-73
2021/12/10 08:09:33;;;;;;;12.25;4.75;;;;;;;2.12;100.00;99174.34;2612014;36;20045;-73
2021/12/10 08:12:01;;;;;;;15.23;5.63;;;;;;;2.18;100.00;99170.31;2612975;36;20035;-73
2021/12/10 08:14:30;;;;;;;15.17;5.10;;;;;;;2.22;100.00;99177.09;2612364;31;20077;-73
2021/12/10 08:16:58;;;;;;;13.40;5.05;;;;;;;2.28;100.00;99179.22;2612613;36;20550;-72
2021/12/10 08:19:26;;;;;;;8.88;4.80;;;;;;;2.28;100.00;99177.44;2612708;36;20050;-73
2021/12/10 08:21:58;;;;;;;12.88;4.82;;;;;;;2.32;100.00;99182.50;2613447;31;20454;-73
2021/12/10 08:24:26;;;;;;;11.60;5.20;;;;;;;2.29;100.00;99175.63;2612484;36;20035;-73
2021/12/10 08:26:55;;;;;;;9.20;4.72;;;;;;;2.33;100.00;99185.03;2612593;36;20034;-73
2021/12/10 08:29:25;;;;;;;13.80;5.50;;;;;;;2.38;100.00;99182.00;2612153;36;20562;-73
2021/12/10 08:31:54;;;;;;;13.00;5.57;;;;;;;2.40;100.00;99182.69;2610138;36;20052;-73
2021/12/10 08:34:23;;;;;;;11.68;5.60;;;;;;;2.47;100.00;99183.06;2612200;36;20031;-73
2021/12/10 08:36:53;;;;;;;11.20;4.97;;;;;;;2.45;100.00;99180.53;2611566;36;20038;-73
2021/12/10 08:39:24;;;;;;;10.73;4.55;;;;;;;2.50;100.00;99188.94;2612322;36;20043;-73
2021/12/10 08:41:56;;;;;;;10.80;4.85;;;;;;;2.58;100.00;99196.31;2611624;36;20138;-72
2021/12/10 08:44:24;;;;;;;9.73;4.63;;;;;;;2.57;100.00;99186.63;2612025;36;20056;-73
2021/12/10 08:46:52;;;;;;;12.20;4.10;;;;;;;2.58;100.00;99193.66;2612609;31;20628;-73
2021/12/10 08:49:21;;;;;;;9.40;4.82;;;;;;;2.59;100.00;99190.00;2612611;36;20042;-73
2021/12/10 08:51:53;;;;;;;12.63;4.82;;;;;;;2.60;100.00;99191.69;2611885;36;20042;-73
2021/12/10 08:54:28;;;;;;;8.70;4.53;;;;;;;2.67;100.00;99190.22;2612552;36;20161;-72
2021/12/10 08:56:57;;;;;;;9.93;4.43;;;;;;;2.74;100.00;99188.75;2612253;36;20042;-72
2021/12/10 08:59:25;;;;;;;10.00;4.32;;;;;;;2.72;100.00;99187.19;2612386;36;20432;-73
2021/12/10 09:01:56;;;;;;;13.27;4.97;;;;;;;2.72;100.00;99189.84;2612045;36;20039;-72
2021/12/10 09:04:26;;;;;;;9.57;4.60;;;;;;;2.77;100.00;99196.47;2612825;31;20546;-72
2021/12/10 09:06:59;;;;;;;10.70;4.50;;;;;;;2.84;100.00;99201.25;2611714;36;20114;-72
2021/12/10 09:09:33;;;;;;;8.30;4.45;;;;;;;2.84;100.00;99203.91;2612747;36;20561;-72
2021/12/10 09:12:03;;;;;;;13.68;4.53;;;;;;;2.84;100.00;99209.22;2612811;36;20463;-74
2021/12/10 09:14:39;;;;;;;10.23;3.65;;;;;;;2.93;100.00;99204.00;2629885;31;20164;-73
2021/12/10 09:17:09;;;;;;;9.93;4.18;;;;;;;2.94;100.00;99204.84;2612039;36;20065;-72
2021/12/10 09:19:38;;;;;;;10.25;5.55;;;;;;;2.97;100.00;99204.56;2612130;36;20570;-72
2021/12/10 09:22:07;;;;;;;12.70;3.55;;;;;;;3.08;100.00;99207.19;2630351;36;20042;-72
2021/12/10 09:24:43;;;;;;;7.95;4.22;;;;;;;3.07;100.00;99205.50;2611120;36;20130;-72
2021/12/10 09:27:11;;;;;;;11.77;4.13;;;;;;;3.03;100.00;99209.38;2612221;36;20138;-72
2021/12/10 09:29:46;;;;;;;10.15;4.10;;;;;;;3.06;100.00;99209.16;2612128;36;20129;-73
2021/12/10 09:32:20;;;;;;;10.23;4.57;;;;;;;3.05;100.00;99212.78;2611583;36;20035;-72
2021/12/10 09:34:49;;;;;;;9.35;4.15;;;;;;;3.17;100.00;99216.22;2613058;31;20035;-73
2021/12/10 09:37:19;;;;;;;7.45;3.63;;;;;;;3.18;100.00;99201.94;2612982;36;20035;-73
2021/12/10 09:39:51;;;;;;;10.85;4.30;;;;;;;3.23;100.00;99205.03;2611767;36;20121;-73
2021/12/10 09:42:23;;;;;;;9.73;4.53;;;;;;;3.19;100.00;99203.63;2612361;31;20506;-73
2021/12/10 09:44:52;;;;;;;9.35;3.80;;;;;;;3.23;100.00;99209.53;2612199;36;20121;-73
2021/12/10 09:47:21;;;;;;;8.95;4.18;;;;;;;3.11;100.00;99211.41;2611887;36;20034;-73
2021/12/10 09:49:53;;;;;;;9.38;4.20;;;;;;;3.06;100.00;99219.78;2611588;36;20034;-73
2021/12/10 09:52:25;;;;;;;15.35;4.47;;;;;;;3.01;100.00;99219.31;2612082;36;20101;-72
2021/12/10 09:54:56;;;;;;;10.32;4.30;;;;;;;2.97;100.00;99218.72;2611182;36;20117;-72
2021/12/10 09:57:27;;;;;;;11.70;5.05;;;;;;;3.00;100.00;99217.59;2629806;36;20149;-72
2021/12/10 09:59:57;;;;;;;15.05;4.72;;;;;;;3.16;100.00;99222.50;2611296;36;20061;-73
2021/12/10 10:02:27;;;;;;;9.43;4.22;;;;;;;3.25;100.00;99228.84;2611834;36;20030;-72
2021/12/10 10:04:56;;;;;;;10.48;4.28;;;;;;;3.18;100.00;99227.66;2610763;36;20100;-72
2021/12/10 10:07:28;;;;;;;10.95;4.85;;;;;;;3.26;100.00;99235.84;2612684;31;20495;-72
2021/12/10 10:10:06;;;;;;;11.27;4.78;;;;;;;3.23;100.00;99236.13;2612072;31;20061;-72
2021/12/10 10:12:39;;;;;;;9.40;4.30;;;;;;;3.32;100.00;99230.03;2612135;36;20057;-73
2021/12/10 10:15:11;;;;;;;11.05;5.20;;;;;;;3.38;100.00;99223.34;2611516;36;20045;-73
2021/12/10 10:17:40;;;;;;;13.40;4.70;;;;;;;3.38;100.00;99229.50;2611903;36;20152;-73
2021/12/10 10:20:12;;;;;;;9.88;4.82;;;;;;;3.38;100.00;99224.16;2612245;31;20161;-73
2021/12/10 10:22:41;;;;;;;8.60;4.30;;;;;;;3.41;100.00;99221.25;2612010;36;20546;-72
2021/12/10 10:25:16;;;;;;;14.25;4.05;;;;;;;3.43;100.00;99227.31;2611628;31;20184;-73
2021/12/10 10:27:45;;;;;;;8.73;4.57;;;;;;;3.49;100.00;99224.13;2611904;36;20137;-72
2021/12/10 10:30:22;;;;;;;10.57;3.95;;;;;;;3.61;100.00;99216.91;2610781;36;20121;-72
2021/12/10 10:32:52;;;;;;;13.00;4.22;;;;;;;3.65;100.00;99226.31;2610386;36;20057;-73
2021/12/10 10:35:22;;;;;;;;;;;;;;;3.62;100.00;99220.38;2611315;36;20039;-72
2021/12/10 10:37:51;;;;;;;9.98;4.15;;;;;;;3.64;100.00;99224.59;2611953;36;20037;-73
2021/12/10 10:40:26;;;;;;;11.55;4.20;;;;;;;3.66;100.00;99222.66;2611500;36;20065;-72
2021/12/10 10:42:55;;;;;;;8.93;3.95;;;;;;;3.65;100.00;99225.44;2611679;36;20041;-73
2021/12/10 10:47:59;;;;;;;8.45;3.80;;;;;;;3.56;100.00;99218.25;2612210;36;20040;-72
2021/12/10 10:50:31;;;;;;;8.43;4.20;;;;;;;3.66;100.00;99222.66;2611998;36;20430;-72
2021/12/10 10:53:02;;;;;;;9.77;3.83;;;;;;;3.83;100.00;99217.72;2611533;36;20077;-72
2021/12/10 10:55:35;;;;;;;9.18;4.25;;;;;;;3.67;100.00;99213.69;2612275;31;20685;-72
2021/12/10 10:58:07;;;;;;;10.23;3.47;;;;;;;3.76;100.00;99216.56;2611690;36;20046;-72
2021/12/10 11:00:46;;;;;;;11.05;4.10;;;;;;;3.62;100.00;99205.28;2611332;36;20088;-72
2021/12/10 11:03:19;;;;;;;10.18;4.35;;;;;;;3.75;100.00;99215.69;2611873;36;20065;-72
2021/12/10 11:05:50;;;;;;;9.65;3.88;;;;;;;3.90;100.00;99216.19;2611732;36;20068;-72
2021/12/10 11:08:29;;;;;;;9.73;3.55;;;;;;;3.97;100.00;99216.50;2611627;36;20086;-72
2021/12/10 11:11:08;;;;;;;14.13;4.93;;;;;;;3.89;100.00;99217.16;2611145;36;20587;-72
2021/12/10 11:13:37;;;;;;;9.98;3.83;;;;;;;3.90;100.00;99213.53;2611401;36;20108;-72
2021/12/10 11:16:09;;;;;;;10.02;3.83;;;;;;;3.88;100.00;99211.97;2611317;36;20129;-72
2021/12/10 11:18:48;;;;;;;8.82;4.10;;;;;;;3.96;100.00;99204.16;2611983;36;20074;-73
2021/12/10 11:21:19;;;;;;;9.18;3.75;;;;;;;3.91;100.00;99209.03;2612220;36;20150;-72
2021/12/10 11:23:47;;;;;;;9.18;3.35;;;;;;;3.96;100.00;99206.81;2611600;36;20129;-72
2021/12/10 11:26:18;;;;;;;10.77;3.60;;;;;;;4.00;100.00;99210.91;2610994;36;20575;-72
2021/12/10 11:28:47;;;;;;;7.05;3.47;;;;;;;3.97;100.00;99216.50;2611583;36;20551;-73
2021/12/10 11:31:19;;;;;;;10.68;3.85;;;;;;;4.03;100.00;99208.81;2611650;36;20586;-72
2021/12/10 11:33:50;;;;;;;11.27;3.55;;;;;;;4.16;100.00;99210.38;2611464;36;20118;-73
2021/12/10 11:36:22;;;;;;;10.45;3.78;;;;;;;4.10;100.00;99202.94;2611355;36;20451;-72
2021/12/10 11:38:55;;;;;;;8.73;3.88;;;;;;;4.17;100.00;99207.59;2611145;36;20450;-73
2021/12/10 11:41:28;;;;;;;16.48;4.10;;;;;;;4.22;100.00;99212.50;2611378;36;20031;-73
2021/12/10 11:44:07;;;;;;;12.77;4.13;;;;;;;4.24;100.00;99210.56;2611344;36;20034;-73
2021/12/10 11:46:51;;;;;;;9.38;3.38;;;;;;;4.28;100.00;99216.44;2611647;36;20042;-73
2021/12/10 11:49:24;;;;;;;15.20;3.95;;;;;;;4.27;100.00;99217.41;2611759;36;20042;-74
2021/12/10 11:51:58;;;;;;;12.25;3.40;;;;;;;4.27;100.00;99217.41;2628575;36;20042;-74
2021/12/10 11:54:32;;;;;;;10.77;3.75;;;;;;;4.29;100.00;99218.13;2611184;36;20034;-73
2021/12/10 11:57:11;;;;;;;8.15;3.55;;;;;;;4.37;100.00;99207.63;2611117;36;20038;-73
2021/12/10 11:59:42;;;;;;;10.40;3.58;;;;;;;4.39;100.00;99211.03;2611692;31;20529;-73
2021/12/10 12:02:14;;;;;;;8.95;3.38;;;;;;;4.32;100.00;99212.53;2611535;36;20126;-73
2021/12/10 12:07:29;;;;;;;9.50;3.75;;;;;;;4.32;100.00;99225.84;2614653;47;20046;-74
2021/12/10 12:10:02;;;;;;;9.80;3.75;;;;;;;4.19;100.00;99215.44;2611546;36;20480;-73
2021/12/10 12:12:40;;;;;;;8.57;3.70;;;;;;;4.25;100.00;99222.06;2610638;36;20053;-73
2021/12/10 12:15:20;;;;;;;7.55;3.28;;;;;;;4.31;100.00;99226.81;2611408;36;20137;-73
2021/12/10 12:17:52;;;;;;;7.38;3.28;;;;;;;4.48;100.00;99233.31;2611005;36;20042;-73
2021/12/10 12:20:32;;;;;;;8.88;3.20;;;;;;;4.38;100.00;99230.63;2611195;36;20126;-73
2021/12/10 12:25:45;;;;;;;6.25;3.40;;;;;;;4.57;100.00;99233.31;2611720;36;20061;-73